ロンドン/ヒースロー の空港の天気 - METARとTAF

ロンドン・ヒースロー空港 ( EGLL / LHR ) - イギリス ロンドン
飛行場実況気象(Metar)
観測時間07/20 23:20 BST (07/20 22:20 UTC)
風向・風速南南西 5m/s
視程10km以上
天気現象
なし
気温15℃
湿度67%
気圧1011hPa
METAREGLL 202220Z AUTO 21009KT 9999 NCD 15/09 Q1011
過去の天気等 Google飛行場航空写真 Wunderground天気予報

過去48時間のMETAR

飛行場予報(TAF)
発表時間: 7/20 17:55 BST (7/20 16:55 UTC)
予報対象時間: 20日19時 BST ~ 22日1時 BST
風向・風速西南西 5m/s
視程10km以上
少しの雲 雲底高度 1,220m
20日21時 BST ~ 20日24時 BST に徐々に
風向・風速南 2m/s
21日7時 BST ~ 21日10時 BST に徐々に
風向・風速南 7m/s
21日22時 BST ~ 22日1時 BST に 確率 40% で一時的に
視程7,000m
天気現象しゅう雨 雨
全天の8割程度の雲 雲底高度 430m
TAF EGLL 201655Z 2018/2124 24010KT 9999 FEW040
BECMG 2020/2023 18004KT
BECMG 2106/2109 17014KT
PROB40 TEMPO 2121/2124 7000 SHRA RA BKN014